Flight Track Log - Related Links

Times and Time Zones

All times are in EDT time to prevent confusion due to time zone crossing. See the N1045F flight status page for this flight to view local times or setup timezone preferences in your user account.

Time Position Orientation Groundspeed Altitude Reporting Facility
EDT Latitude Longitude Course Direction KTS MPH feet Rate Location/Type
Sat 04:38:29 PM 36.2286 -94.4828 North 110 127 2,200  Level Kansas City Center
Sat 04:39:31 PM 36.2586 -94.4775 North 109 125 3,000 677 Climbing Kansas City Center
Sat 04:40:33 PM 36.2872 -94.4708 11° North 107 123 3,600 484 Climbing Kansas City Center
Sat 04:41:35 PM 36.3153 -94.4475 34° Northeast 120 138 4,000 484 Climbing Kansas City Center
Sat 04:42:37 PM 36.3375 -94.4156 49° Northeast 124 143 4,600 581 Climbing Kansas City Center
Sat 04:43:39 PM 36.3600 -94.3858 47° Northeast 121 139 5,200 537 Climbing Kansas City Center
Sat 04:44:40 PM 36.3819 -94.3550 49° Northeast 121 139 5,700 390 Climbing Kansas City Center
Sat 04:45:42 PM 36.4111 -94.3150 48° Northeast 124 143 6,000 145 Climbing Kansas City Center
Sat 04:46:44 PM 36.4394 -94.2767 47° Northeast 136 157 6,000  Level Kansas City Center
Sat 04:47:46 PM 36.4700 -94.2358 47° Northeast 149 171 6,000 -48 Level Kansas City Center
Sat 04:48:48 PM 36.5017 -94.1942 47° Northeast 158 182 5,900 -49 Descending Kansas City Center
Sat 04:49:49 PM 36.5333 -94.1517 47° Northeast 163 188 5,900  Level Kansas City Center
Sat 04:50:51 PM 36.5647 -94.1094 47° Northeast 165 190 5,900  Level Kansas City Center
Sat 04:51:53 PM 36.5964 -94.0672 47° Northeast 166 191 5,900 48 Level Kansas City Center
Sat 04:52:55 PM 36.6333 -94.0161 48° Northeast 166 191 6,000 195 Climbing Kansas City Center
Sat 04:53:56 PM 36.6639 -93.9772 46° Northeast 162 186 6,300 341 Climbing Kansas City Center
Sat 04:54:58 PM 36.6919 -93.9397 47° Northeast 156 180 6,700 339 Climbing Kansas City Center
Sat 04:56:00 PM 36.7175 -93.9036 49° Northeast 148 170 7,000 145 Climbing Kansas City Center
Sat 04:57:02 PM 36.7453 -93.8636 49° Northeast 148 170 7,000  Level Kansas City Center
Sat 04:58:03 PM 36.7775 -93.8211 47° Northeast 156 180 7,000  Level Kansas City Center
Sat 04:59:05 PM 36.8103 -93.7761 48° Northeast 165 190 7,000  Level Kansas City Center
Sat 05:00:07 PM 36.8431 -93.7328 47° Northeast 170 196 7,000  Level Kansas City Center
Sat 05:01:09 PM 36.8811 -93.6831 46° Northeast 173 199 7,000  Level Kansas City Center
Sat 05:02:11 PM 36.9142 -93.6378 48° Northeast 175 201 7,000  Level Kansas City Center
Sat 05:03:12 PM 36.9461 -93.5928 48° Northeast 173 199 7,000  Level Kansas City Center
Sat 05:04:14 PM 36.9792 -93.5517 45° Northeast 169 194 7,000  Level Kansas City Center
Sat 05:05:16 PM 37.0100 -93.5075 49° Northeast 168 193 7,000  Level Kansas City Center
Sat 05:06:17 PM 37.0478 -93.4544 48° Northeast 169 194 7,000  Level Kansas City Center
Sat 05:07:19 PM 37.0800 -93.4100 48° Northeast 171 197 7,000  Level Kansas City Center
Sat 05:08:21 PM 37.1125 -93.3667 47° Northeast 171 197 7,000  Level Kansas City Center
Sat 05:09:23 PM 37.1447 -93.3219 48° Northeast 171 197 7,000  Level Kansas City Center
Sat 05:10:24 PM 37.1753 -93.2775 49° Northeast 170 196 7,000  Level Kansas City Center
Sat 05:11:26 PM 37.2067 -93.2333 48° Northeast 169 194 7,000  Level Kansas City Center
Sat 05:12:28 PM 37.2392 -93.1911 46° Northeast 169 194 7,000  Level Kansas City Center
Sat 05:13:29 PM 37.2697 -93.1478 48° Northeast 167 192 7,000  Level Kansas City Center
Sat 05:14:31 PM 37.3067 -93.0953 48° Northeast 166 191 7,000  Level Kansas City Center
Sat 05:15:33 PM 37.3381 -93.0533 47° Northeast 165 190 7,000  Level Kansas City Center
Sat 05:16:34 PM 37.3683 -93.0108 48° Northeast 165 190 7,000  Level Kansas City Center
Sat 05:17:36 PM 37.3989 -92.9672 49° Northeast 165 190 7,000  Level Kansas City Center
Sat 05:18:38 PM 37.4300 -92.9244 48° Northeast 165 190 7,000  Level Kansas City Center
Sat 05:19:39 PM 37.4608 -92.8817 48° Northeast 165 190 7,000  Level Kansas City Center
Sat 05:20:41 PM 37.4917 -92.8392 48° Northeast 164 189 7,000  Level Kansas City Center
Sat 05:21:43 PM 37.5225 -92.7961 48° Northeast 164 189 7,000  Level Kansas City Center
Sat 05:22:44 PM 37.5536 -92.7519 48° Northeast 166 191 7,000  Level Kansas City Center
Sat 05:23:46 PM 37.5911 -92.6989 48° Northeast 167 192 7,000  Level Kansas City Center
Sat 05:24:48 PM 37.6158 -92.6478 59° Northeast 168 193 7,000  Level Kansas City Center
Sat 05:25:49 PM 37.6247 -92.5897 79° East 176 203 7,000  Level Kansas City Center
Sat 05:26:51 PM 37.6247 -92.5292 90° East 175 201 7,000  Level Kansas City Center
Sat 05:27:53 PM 37.6272 -92.4681 87° East 174 200 7,000  Level Kansas City Center
Sat 05:28:54 PM 37.6297 -92.4064 87° East 175 201 7,000  Level Kansas City Center
Sat 05:29:56 PM 37.6317 -92.3456 88° East 175 201 7,000  Level Kansas City Center
Sat 05:30:57 PM 37.6331 -92.2850 88° East 174 200 7,000  Level Kansas City Center
Sat 05:31:59 PM 37.6347 -92.2136 88° East 172 198 7,000  Level Kansas City Center
Sat 05:33:01 PM 37.6425 -92.1586 80° East 170 196 7,000  Level Kansas City Center
Sat 05:34:02 PM 37.6750 -92.1183 44° Northeast 165 190 7,000  Level Kansas City Center
Sat 05:35:04 PM 37.7061 -92.0750 48° Northeast 166 191 7,000  Level Kansas City Center
Sat 05:36:06 PM 37.7372 -92.0314 48° Northeast 167 192 7,000  Level Kansas City Center
Sat 05:37:07 PM 37.7686 -91.9897 46° Northeast 166 191 7,000  Level Kansas City Center
Sat 05:38:09 PM 37.7997 -91.9483 46° Northeast 164 189 7,000  Level Kansas City Center
Sat 05:39:10 PM 37.8378 -91.8983 46° Northeast 164 189 7,000  Level Kansas City Center
Sat 05:40:12 PM 37.8689 -91.8561 47° Northeast 165 190 7,000  Level Kansas City Center
Sat 05:41:14 PM 37.9014 -91.8131 46° Northeast 168 193 7,000  Level Kansas City Center
Sat 05:42:15 PM 37.9325 -91.7689 48° Northeast 168 193 7,000  Level Kansas City Center
Sat 05:43:17 PM 37.9650 -91.7272 45° Northeast 167 192 7,000  Level Kansas City Center
Sat 05:44:18 PM 37.9967 -91.6853 46° Northeast 165 190 7,000  Level Kansas City Center
Sat 05:45:20 PM 38.0275 -91.6419 48° Northeast 165 190 7,000  Level Kansas City Center
Sat 05:46:22 PM 38.0594 -91.5994 46° Northeast 166 191 7,000  Level Kansas City Center
Sat 05:47:23 PM 38.0969 -91.5492 47° Northeast 164 189 7,000  Level Kansas City Center
Sat 05:48:25 PM 38.1286 -91.5078 46° Northeast 163 188 7,000  Level Kansas City Center
Sat 05:49:26 PM 38.1522 -91.4736 49° Northeast 162 186 7,000  Level Kansas City Center
Sat 05:50:28 PM 38.1906 -91.4225 46° Northeast 165 190 7,000  Level Kansas City Center
Sat 05:51:30 PM 38.2203 -91.3817 47° Northeast 167 192 7,000  Level Kansas City Center
Sat 05:52:31 PM 38.2514 -91.3372 48° Northeast 169 194 7,000  Level Kansas City Center
Sat 05:53:33 PM 38.2842 -91.2936 46° Northeast 170 196 7,000  Level Kansas City Center
Sat 05:54:34 PM 38.3228 -91.2411 47° Northeast 170 196 7,000  Level Kansas City Center
Sat 05:55:36 PM 38.3553 -91.1978 46° Northeast 170 196 7,000  Level Kansas City Center
Sat 05:56:38 PM 38.3869 -91.1550 47° Northeast 168 193 7,000  Level Kansas City Center
Sat 05:57:39 PM 38.4183 -91.1103 48° Northeast 168 193 7,000  Level Kansas City Center
Sat 05:58:41 PM 38.4503 -91.0664 47° Northeast 168 193 7,000  Level Kansas City Center
Sat 05:59:42 PM 38.4825 -91.0225 47° Northeast 170 196 7,000  Level Kansas City Center
Sat 06:00:44 PM 38.5136 -90.9789 48° Northeast 168 193 7,000  Level Kansas City Center
Sat 06:01:45 PM 38.5456 -90.9347 47° Northeast 169 194 7,000  Level Kansas City Center
Sat 06:02:47 PM 38.5847 -90.8811 47° Northeast 171 197 7,000  Level Kansas City Center
Sat 06:03:48 PM 38.6164 -90.8375 47° Northeast 169 194 7,000  Level Kansas City Center
Sat 06:04:50 PM 38.6483 -90.7928 48° Northeast 168 193 7,000  Level Kansas City Center
Sat 06:05:51 PM 38.6803 -90.7492 47° Northeast 168 193 7,000  Level Kansas City Center
Sat 06:06:52 PM 38.7119 -90.7042 48° Northeast 169 194 7,000  Level Kansas City Center
Sat 06:07:54 PM 38.7442 -90.6597 47° Northeast 169 194 7,000  Level Kansas City Center
Sat 06:08:55 PM 38.7764 -90.6153 47° Northeast 169 194 7,000  Level Kansas City Center
Sat 06:09:57 PM 38.8083 -90.5697 48° Northeast 170 196 7,000  Level Kansas City Center
Sat 06:10:58 PM 38.8406 -90.5250 47° Northeast 170 196 7,000  Level Kansas City Center
Sat 06:12:00 PM 38.8725 -90.4803 47° Northeast 170 196 7,000  Level Kansas City Center
Sat 06:13:01 PM 38.9047 -90.4356 47° Northeast 169 194 7,000  Level Kansas City Center
Sat 06:14:03 PM 38.9436 -90.3811 47° Northeast 171 197 7,000  Level Kansas City Center
Sat 06:15:04 PM 38.9761 -90.3353 48° Northeast 172 198 7,000  Level Kansas City Center
Sat 06:16:06 PM 39.0075 -90.2908 48° Northeast 170 196 7,000  Level Kansas City Center
Sat 06:17:07 PM 39.0400 -90.2458 47° Northeast 171 197 7,000  Level Kansas City Center
Sat 06:18:09 PM 39.0714 -90.1997 49° Northeast 171 197 7,000  Level Kansas City Center
Sat 06:19:11 PM 39.1039 -90.1539 48° Northeast 173 199 7,000  Level Kansas City Center
Sat 06:20:12 PM 39.1358 -90.1083 48° Northeast 172 198 7,000  Level Kansas City Center
Sat 06:21:14 PM 39.1681 -90.0625 48° Northeast 172 198 7,000 -49 Level Kansas City Center
Sat 06:22:15 PM 39.2061 -90.0083 48° Northeast 171 197 6,900 -49 Descending Kansas City Center
Sat 06:23:17 PM 39.2386 -89.9611 48° Northeast 174 200 6,900  Level Kansas City Center
Sat 06:24:18 PM 39.2708 -89.9156 48° Northeast 173 199 6,900  Level Kansas City Center
Sat 06:25:20 PM 39.3036 -89.8697 47° Northeast 173 199 6,900  Level Kansas City Center
Sat 06:26:22 PM 39.3347 -89.8239 49° Northeast 171 197 6,900  Level Kansas City Center
Sat 06:27:23 PM 39.3664 -89.7775 49° Northeast 172 198 6,900  Level Kansas City Center
Sat 06:28:25 PM 39.3986 -89.7339 46° Northeast 170 196 6,900  Level Kansas City Center
Sat 06:29:27 PM 39.4300 -89.6883 48° Northeast 170 196 6,900  Level Kansas City Center
Sat 06:30:28 PM 39.4667 -89.6358 48° Northeast 165 190 6,900  Level Kansas City Center
Sat 06:31:30 PM 39.4975 -89.5914 48° Northeast 164 189 6,900  Level Kansas City Center
Sat 06:32:31 PM 39.5275 -89.5489 48° Northeast 162 186 6,900  Level Kansas City Center
Sat 06:33:33 PM 39.5578 -89.5036 49° Northeast 164 189 6,900  Level Kansas City Center
Sat 06:34:35 PM 39.5886 -89.4600 47° Northeast 164 189 6,900  Level Kansas City Center
Sat 06:35:36 PM 39.6192 -89.4150 49° Northeast 165 190 6,900  Level Kansas City Center
Sat 06:36:38 PM 39.6492 -89.3703 49° Northeast 166 191 6,900  Level Kansas City Center
Sat 06:37:39 PM 39.6867 -89.3172 47° Northeast 166 191 6,900  Level Kansas City Center
Sat 06:38:41 PM 39.7169 -89.2731 48° Northeast 166 191 6,900  Level Kansas City Center
Sat 06:39:43 PM 39.7478 -89.2278 48° Northeast 166 191 6,900  Level Kansas City Center
Sat 06:40:44 PM 39.7786 -89.1831 48° Northeast 166 191 6,900  Level Kansas City Center
Sat 06:41:46 PM 39.8092 -89.1389 48° Northeast 166 191 6,900  Level Kansas City Center
Sat 06:42:47 PM 39.8394 -89.0947 48° Northeast 165 190 6,900  Level Kansas City Center
Sat 06:43:49 PM 39.8700 -89.0500 48° Northeast 165 190 6,900  Level Kansas City Center
Sat 06:44:51 PM 39.9000 -89.0050 49° Northeast 165 190 6,900  Level Kansas City Center
Sat 06:45:52 PM 39.9367 -88.9508 49° Northeast 165 190 6,900  Level Kansas City Center
Sat 06:46:54 PM 39.9664 -88.9072 48° Northeast 164 189 6,900  Level Kansas City Center
Sat 06:47:55 PM 39.9956 -88.8650 48° Northeast 162 186 6,900  Level Kansas City Center
Sat 06:48:57 PM 40.0275 -88.8192 48° Northeast 163 188 6,900  Level Kansas City Center
Sat 06:49:58 PM 40.0561 -88.7750 50° Northeast 163 188 6,900  Level Kansas City Center
Sat 06:51:00 PM 40.0878 -88.7289 48° Northeast 166 191 6,900  Level Kansas City Center
Sat 06:52:01 PM 40.1164 -88.6850 50° Northeast 164 189 6,900  Level Kansas City Center
Sat 06:53:09 PM 40.1519 -88.6333 48° Northeast 162 186 6,900  Level Chicago Center
Sat 06:54:11 PM 40.1822 -88.5886 48° Northeast 163 188 6,900  Level Chicago Center
Sat 06:55:12 PM 40.2128 -88.5447 48° Northeast 164 189 6,900  Level Chicago Center
Sat 06:56:14 PM 40.2417 -88.5000 50° Northeast 164 189 6,900  Level Chicago Center
Sat 06:57:15 PM 40.2775 -88.4442 50° Northeast 165 190 6,900  Level Chicago Center
Sat 06:58:17 PM 40.3083 -88.3989 48° Northeast 165 190 6,900  Level Chicago Center
Sat 06:59:19 PM 40.3408 -88.3503 49° Northeast 166 191 6,900  Level Chicago Center
Sat 07:00:20 PM 40.3717 -88.3042 49° Northeast 168 193 6,900  Level Chicago Center
Sat 07:01:22 PM 40.4019 -88.2589 49° Northeast 167 192 6,900  Level Chicago Center
Sat 07:02:23 PM 40.4317 -88.2133 49° Northeast 166 191 6,900  Level Chicago Center
Sat 07:03:25 PM 40.4617 -88.1683 49° Northeast 166 191 6,900  Level Chicago Center
Sat 07:04:26 PM 40.4928 -88.1225 48° Northeast 167 192 6,900  Level Chicago Center
Sat 07:05:28 PM 40.5225 -88.0750 51° Northeast 168 193 6,900  Level Chicago Center
Sat 07:06:29 PM 40.5603 -88.0222 47° Northeast 168 193 6,900  Level Chicago Center
Sat 07:07:31 PM 40.5900 -87.9739 51° Northeast 171 197 6,900  Level Chicago Center
Sat 07:08:32 PM 40.6208 -87.9275 49° Northeast 170 196 6,900  Level Chicago Center
Sat 07:09:34 PM 40.6511 -87.8822 49° Northeast 168 193 6,900  Level Chicago Center
Sat 07:10:35 PM 40.6811 -87.8361 49° Northeast 167 192 6,900  Level Chicago Center
Sat 07:11:37 PM 40.7111 -87.7894 50° Northeast 167 192 6,900  Level Chicago Center
Sat 07:12:38 PM 40.7486 -87.7339 48° Northeast 169 194 6,900  Level Chicago Center
Sat 07:13:40 PM 40.7794 -87.6872 49° Northeast 170 196 6,900  Level Chicago Center
Sat 07:14:41 PM 40.8100 -87.6408 49° Northeast 168 193 6,900  Level Chicago Center
Sat 07:15:43 PM 40.8411 -87.5933 49° Northeast 170 196 6,900  Level Chicago Center
Sat 07:16:44 PM 40.8711 -87.5469 49° Northeast 169 194 6,900  Level Chicago Center
Sat 07:17:46 PM 40.9011 -87.5000 50° Northeast 169 194 6,900  Level Chicago Center
Sat 07:18:47 PM 40.9308 -87.4536 50° Northeast 167 192 6,900  Level Chicago Center
Sat 07:19:49 PM 40.9675 -87.3986 49° Northeast 167 192 6,900  Level Chicago Center
Sat 07:20:50 PM 40.9972 -87.3525 49° Northeast 166 191 6,900  Level Chicago Center
Sat 07:21:51 PM 41.0275 -87.3058 49° Northeast 167 192 6,900  Level Chicago Center
Sat 07:22:53 PM 41.0569 -87.2600 50° Northeast 166 191 6,900  Level Chicago Center
Sat 07:23:54 PM 41.0872 -87.2131 49° Northeast 167 192 6,900  Level Chicago Center
Sat 07:24:56 PM 41.1169 -87.1661 50° Northeast 168 193 6,900  Level Chicago Center
Sat 07:25:57 PM 41.1458 -87.1214 49° Northeast 164 189 6,900 49 Level Chicago Center
Sat 07:26:58 PM 41.1819 -87.0647 50° Northeast 167 192 7,000 49 Climbing Chicago Center
Sat 07:28:00 PM 41.2119 -87.0189 49° Northeast 166 191 7,000  Level Chicago Center
Sat 07:29:01 PM 41.2414 -86.9739 49° Northeast 164 189 7,000  Level Chicago Center
Sat 07:30:03 PM 41.2703 -86.9261 51° Northeast 166 191 7,000  Level Chicago Center
Sat 07:31:04 PM 41.2992 -86.8806 50° Northeast 163 188 7,000  Level Chicago Center
Sat 07:32:06 PM 41.3281 -86.8361 49° Northeast 162 186 7,000  Level Chicago Center
Sat 07:33:07 PM 41.3636 -86.7797 50° Northeast 165 190 7,000  Level Chicago Center
Sat 07:34:08 PM 41.3925 -86.7336 50° Northeast 164 189 7,000  Level Chicago Center
Sat 07:35:10 PM 41.4167 -86.6944 51° Northeast 163 188 7,000  Level Chicago Center
Sat 07:36:11 PM 41.4514 -86.6378 51° Northeast 164 189 7,000  Level Chicago Center
Sat 07:37:12 PM 41.4803 -86.5914 50° Northeast 164 189 7,000  Level Chicago Center
Sat 07:38:14 PM 41.5097 -86.5458 49° Northeast 164 189 7,000  Level Chicago Center
Sat 07:39:15 PM 41.5386 -86.4992 50° Northeast 163 188 7,000 -98 Level Chicago Center
Sat 07:40:17 PM 41.5675 -86.4522 51° Northeast 165 190 6,800 -146 Descending Chicago Center
Sat 07:41:18 PM 41.5986 -86.4031 50° Northeast 172 198 6,700 -146 Descending Chicago Center
Sat 07:42:20 PM 41.6289 -86.3544 50° Northeast 170 196 6,500 -146 Descending Chicago Center
Sat 07:43:21 PM 41.6600 -86.3039 51° Northeast 174 200 6,400 -148 Descending Chicago Center
Sat 07:44:22 PM 41.6914 -86.2544 50° Northeast 174 200 6,200 -195 Descending Chicago Center
Sat 07:45:24 PM 41.7286 -86.1944 50° Northeast 176 203 6,000 -146 Descending Chicago Center
Sat 07:46:25 PM 41.7600 -86.1458 49° Northeast 173 199 5,900 -146 Descending Chicago Center
Sat 07:47:27 PM 41.7903 -86.0947 52° Northeast 174 200 5,700 -195 Descending Chicago Center
Sat 07:48:28 PM 41.8208 -86.0450 50° Northeast 174 200 5,500 -146 Descending Chicago Center
Sat 07:49:30 PM 41.8517 -85.9956 50° Northeast 173 199 5,400 -195 Descending Chicago Center
Sat 07:50:31 PM 41.8831 -85.9456 50° Northeast 174 200 5,100 -244 Descending Chicago Center
Sat 07:51:33 PM 41.9142 -85.8961 50° Northeast 174 200 4,900 -244 Descending Chicago Center
Sat 07:52:34 PM 41.9442 -85.8461 51° Northeast 172 198 4,600 -195 Descending Chicago Center
Sat 07:53:36 PM 41.9747 -85.7983 49° Northeast 170 196 4,500 -146 Descending Chicago Center
Sat 07:54:37 PM 42.0094 -85.7414 51° Northeast 165 190 4,300 -148 Descending Chicago Center
Sat 07:55:38 PM 42.0386 -85.6936 51° Northeast 165 190 4,200 -146 Descending Chicago Center
Sat 07:56:40 PM 42.0675 -85.6456 51° Northeast 165 190 4,000 -146 Descending Chicago Center
Sat 07:57:41 PM 42.0967 -85.5975 51° Northeast 166 191 3,900 -146 Descending Chicago Center
Sat 07:58:43 PM 42.1339 -85.5583 38° Northeast 168 193 3,700 -195 Descending Chicago Center
Sat 07:59:44 PM 42.1681 -85.5164 42° Northeast 167 192 3,500 -195 Descending Chicago Center
Sat 08:00:46 PM 42.2025 -85.4742 42° Northeast 167 192 3,300 -195 Descending Chicago Center
Sat 08:01:47 PM 42.2353 -85.4292 45° Northeast 168 193 3,100 -246 Descending Chicago Center
Sat 08:02:48 PM 42.2667 -85.3744 52° Northeast 170 196 2,800 -244 Descending Chicago Center
Sat 08:03:50 PM 42.2939 -85.3219 55° Northeast 170 196 2,600 -293 Descending Chicago Center
Sat 08:04:51 PM 42.3214 -85.2658 56° Northeast 166 191 2,200 -344 Descending Chicago Center
Sat 08:05:52 PM 42.3425 -85.2278 53° Northeast 159 183 1,900 -295 Descending Chicago Center
Sat 08:07:00 PM 42.3000 -85.2500 216° Southwest  Level FlightAware Approximate
Sat 08:14:00 PM 42.3065 -85.2501 216° Southwest  Level Estimated

Login

Don't have an account? Register now (free) for customized features, flight alerts, and more!